Time;durP1;ratioP1;P1;durP2;ratioP2;P2;SDS_P1;SDS_P2;PMS_P1;PMS_P2;Temp;Humidity;BMP_temperature;BMP_pressure;BME280_temperature;BME280_humidity;BME280_pressure;Samples;Min_cycle;Max_cycle;Signal;HPM_P1;HPM_P2
2023/10/27 00:00:53;;;;;;;0.50;0.50;;;;;;;13.85;100.00;97962.81;5106510;28;20106;-59
2023/10/27 00:03:18;;;;;;;0.50;0.50;;;;;;;13.81;100.00;97956.88;5092406;28;20028;-59
2023/10/27 00:05:44;;;;;;;0.50;0.50;;;;;;;13.83;100.00;97964.75;5092538;28;20035;-59
2023/10/27 00:08:09;;;;;;;0.40;0.40;;;;;;;13.80;100.00;97959.66;5100884;28;20035;-59
2023/10/27 00:10:37;;;;;;;0.40;0.40;;;;;;;13.82;100.00;97963.06;5111829;28;20367;-59
2023/10/27 00:13:03;;;;;;;0.50;0.50;;;;;;;13.79;100.00;97961.47;5111348;28;20571;-59
2023/10/27 00:15:28;;;;;;;0.50;0.50;;;;;;;13.79;100.00;97957.97;5093398;28;20032;-59
2023/10/27 00:17:56;;;;;;;0.50;0.50;;;;;;;13.76;100.00;97963.53;5093127;28;20036;-59
2023/10/27 00:20:22;;;;;;;0.50;0.50;;;;;;;13.75;100.00;97968.03;5090662;28;20472;-59
2023/10/27 00:22:48;;;;;;;0.50;0.50;;;;;;;13.81;100.00;97962.22;5096047;28;20083;-59
2023/10/27 00:25:13;;;;;;;0.47;0.47;;;;;;;13.79;100.00;97968.66;5104696;28;20080;-59
2023/10/27 00:27:39;;;;;;;0.50;0.50;;;;;;;13.77;100.00;97971.41;5110216;28;20020;-60
2023/10/27 00:30:06;;;;;;;0.50;0.50;;;;;;;13.69;100.00;97956.97;5103595;28;20028;-59
2023/10/27 00:32:32;;;;;;;0.40;0.40;;;;;;;13.76;100.00;97964.38;5110906;28;20027;-59
2023/10/27 00:34:57;;;;;;;0.50;0.50;;;;;;;13.75;100.00;97964.50;5111531;28;20479;-59
2023/10/27 00:37:22;;;;;;;0.50;0.50;;;;;;;13.78;100.00;97961.59;5093748;28;20019;-59
2023/10/27 00:39:48;;;;;;;0.50;0.50;;;;;;;13.77;100.00;97965.25;5111842;28;20023;-59
2023/10/27 00:42:13;;;;;;;0.43;0.43;;;;;;;13.77;100.00;97957.22;5105009;28;20132;-59
2023/10/27 00:44:39;;;;;;;0.50;0.50;;;;;;;13.75;100.00;97961.84;5091249;28;20089;-59
2023/10/27 00:47:04;;;;;;;0.50;0.50;;;;;;;13.69;100.00;97956.97;5091595;28;20040;-60
2023/10/27 00:49:30;;;;;;;0.50;0.50;;;;;;;13.68;100.00;97965.94;5074264;28;20027;-59
2023/10/27 00:51:55;;;;;;;0.50;0.50;;;;;;;13.69;100.00;97962.31;5092638;28;20055;-59
2023/10/27 00:54:21;;;;;;;0.50;0.50;;;;;;;13.67;100.00;97969.59;5109496;28;20059;-59
2023/10/27 00:56:47;;;;;;;0.50;0.50;;;;;;;13.68;100.00;97965.94;5095882;28;20452;-59
2023/10/27 00:59:14;;;;;;;0.50;0.50;;;;;;;13.66;100.00;97970.56;5093572;28;20039;-59
2023/10/27 01:01:42;;;;;;;0.50;0.50;;;;;;;13.63;100.00;97958.28;5092107;28;20058;-59
2023/10/27 01:04:07;;;;;;;0.50;0.50;;;;;;;13.66;100.00;97962.53;5101281;28;20032;-59
2023/10/27 01:06:33;;;;;;;0.50;0.50;;;;;;;13.63;100.00;97962.78;5095352;28;20016;-59
2023/10/27 01:08:58;;;;;;;0.50;0.50;;;;;;;13.60;100.00;97963.03;5093426;28;20035;-59
2023/10/27 01:11:24;;;;;;;0.50;0.50;;;;;;;13.55;100.00;97950.03;5071570;28;20028;-59
2023/10/27 01:13:55;;;;;;;0.50;0.50;;;;;;;13.51;100.00;97948.56;5089585;28;20055;-60
2023/10/27 01:16:21;;;;;;;0.43;0.43;;;;;;;13.56;100.00;97945.53;5089119;28;20020;-59
2023/10/27 01:18:47;;;;;;;0.50;0.50;;;;;;;13.58;100.00;97938.25;5089184;28;20067;-59
2023/10/27 01:21:13;;;;;;;0.50;0.50;;;;;;;13.55;100.00;97947.34;5089831;28;20066;-58
2023/10/27 01:23:38;;;;;;;0.50;0.50;;;;;;;13.52;100.00;97933.38;5100410;28;20562;-58
2023/10/27 01:26:04;;;;;;;0.50;0.50;;;;;;;13.59;100.00;97935.44;5107626;28;20531;-59
2023/10/27 01:28:31;;;;;;;0.50;0.50;;;;;;;13.59;100.00;97934.63;5110605;28;20027;-58
2023/10/27 01:30:56;;;;;;;0.50;0.50;;;;;;;13.60;100.00;97926.47;5111004;28;20479;-58
2023/10/27 01:33:22;;;;;;;0.50;0.50;;;;;;;13.58;100.00;97922.22;5106551;28;20100;-58
2023/10/27 01:35:49;;;;;;;0.43;0.43;;;;;;;13.57;100.00;97915.19;5090546;28;20081;-58
2023/10/27 01:38:14;;;;;;;0.50;0.50;;;;;;;13.56;100.00;97917.00;5099419;28;20446;-58
2023/10/27 01:40:40;;;;;;;0.50;0.50;;;;;;;13.59;100.00;97918.59;5108672;28;20072;-58
2023/10/27 01:43:05;;;;;;;0.50;0.50;;;;;;;13.60;100.00;97909.59;5110937;28;20053;-58
2023/10/27 01:45:30;;;;;;;0.50;0.50;;;;;;;13.60;100.00;97917.59;5102093;28;20029;-58
2023/10/27 01:47:56;;;;;;;0.50;0.50;;;;;;;13.58;100.00;97895.50;5094573;28;20023;-58
2023/10/27 01:50:21;;;;;;;0.50;0.50;;;;;;;13.60;100.00;97898.91;5109165;28;20076;-58
2023/10/27 01:52:46;;;;;;;0.50;0.50;;;;;;;13.58;100.00;97899.03;5108110;28;20387;-58
2023/10/27 01:55:12;;;;;;;0.50;0.50;;;;;;;13.56;100.00;97892.13;5105952;28;20114;-58
2023/10/27 01:57:37;;;;;;;0.60;0.60;;;;;;;13.57;100.00;97896.50;5109718;28;20425;-58
2023/10/27 02:00:03;;;;;;;0.50;0.50;;;;;;;13.57;100.00;97888.47;5105799;28;20400;-58
2023/10/27 02:02:29;;;;;;;0.50;0.50;;;;;;;13.52;100.00;97879.97;5089478;28;20027;-58
2023/10/27 02:04:55;;;;;;;0.50;0.50;;;;;;;13.58;100.00;97892.84;5092005;28;20115;-58
2023/10/27 02:07:24;;;;;;;0.50;0.50;;;;;;;13.57;100.00;97881.31;5106106;28;20118;-58
2023/10/27 02:09:51;;;;;;;0.50;0.50;;;;;;;13.55;100.00;97877.06;5088801;28;20085;-57
2023/10/27 02:12:16;;;;;;;0.40;0.40;;;;;;;13.52;100.00;97858.59;5091101;28;20491;-58
2023/10/27 02:14:41;;;;;;;0.57;0.57;;;;;;;13.48;100.00;97862.47;5089410;28;20048;-58
2023/10/27 02:17:07;;;;;;;0.50;0.50;;;;;;;13.46;100.00;97859.09;5108485;28;20023;-57
2023/10/27 02:19:32;;;;;;;0.50;0.50;;;;;;;13.45;100.00;97862.72;5108182;28;20553;-57
2023/10/27 02:21:58;;;;;;;0.50;0.50;;;;;;;13.45;100.00;97860.03;5091704;28;20073;-58
2023/10/27 02:24:23;;;;;;;0.50;0.50;;;;;;;13.42;100.00;97845.13;5107508;28;20031;-58
2023/10/27 02:26:49;;;;;;;0.50;0.50;;;;;;;13.33;100.00;97843.16;5096906;28;20114;-57
2023/10/27 02:29:17;;;;;;;0.43;0.43;;;;;;;13.39;100.00;97848.03;5099531;28;20475;-57
2023/10/27 02:31:43;;;;;;;0.50;0.50;;;;;;;13.37;100.00;97851.78;5106646;28;20027;-57
2023/10/27 02:34:08;;;;;;;0.50;0.50;;;;;;;13.45;100.00;97852.03;5096202;28;20081;-57
2023/10/27 02:36:34;;;;;;;0.50;0.50;;;;;;;13.41;100.00;97851.41;5098230;28;20050;-58
2023/10/27 02:38:59;;;;;;;0.50;0.50;;;;;;;13.42;100.00;97849.59;5097435;28;20035;-57
2023/10/27 02:41:24;;;;;;;0.50;0.50;;;;;;;13.40;100.00;97846.19;5109763;28;20032;-58
2023/10/27 02:43:50;;;;;;;0.50;0.50;;;;;;;13.42;100.00;97846.94;5109655;28;20039;-57
2023/10/27 02:46:15;;;;;;;0.50;0.50;;;;;;;13.42;100.00;97844.25;5093812;28;20034;-57
2023/10/27 02:48:42;;;;;;;0.50;0.50;;;;;;;13.42;100.00;97846.94;5089408;28;20438;-57
2023/10/27 02:51:12;;;;;;;0.50;0.50;;;;;;;13.35;100.00;97840.38;5089500;28;20085;-57
2023/10/27 02:53:37;;;;;;;0.52;0.52;;;;;;;13.32;100.00;97836.13;5099360;28;20027;-57
2023/10/27 02:56:09;;;;;;;0.50;0.50;;;;;;;13.31;100.00;97839.75;5106252;28;20461;-57
2023/10/27 02:58:35;;;;;;;0.50;0.50;;;;;;;13.33;100.00;97837.00;5109081;28;20461;-58
2023/10/27 03:01:06;;;;;;;0.50;0.50;;;;;;;13.34;100.00;97839.53;5101154;28;20032;-57
2023/10/27 03:03:32;;;;;;;0.50;0.50;;;;;;;13.28;100.00;97839.16;5090624;28;20027;-58
2023/10/27 03:05:58;;;;;;;0.50;0.50;;;;;;;13.32;100.00;97845.94;5088293;28;20349;-57
2023/10/27 03:08:23;;;;;;;0.50;0.50;;;;;;;13.14;100.00;97811.72;5103428;28;20028;-57
2023/10/27 03:10:49;;;;;;;0.50;0.50;;;;;;;13.30;100.00;97837.22;5108521;28;20434;-58
2023/10/27 03:13:14;;;;;;;0.50;0.50;;;;;;;13.26;100.00;97830.41;5099073;28;20569;-58
2023/10/27 03:15:39;;;;;;;0.50;0.50;;;;;;;13.29;100.00;97831.03;5089370;28;20039;-58
2023/10/27 03:18:05;;;;;;;0.60;0.60;;;;;;;13.32;100.00;97845.94;5093115;28;20539;-58
2023/10/27 03:20:30;;;;;;;0.50;0.50;;;;;;;13.29;100.00;97835.50;5109652;28;20023;-58
2023/10/27 03:22:55;;;;;;;0.55;0.55;;;;;;;13.30;100.00;97838.06;5098548;28;20559;-58
2023/10/27 03:25:21;;;;;;;0.50;0.50;;;;;;;13.35;100.00;97840.38;5089011;28;20032;-58
2023/10/27 03:27:46;;;;;;;0.50;0.50;;;;;;;13.31;100.00;97833.59;5091308;28;20020;-58
2023/10/27 03:30:12;;;;;;;0.50;0.50;;;;;;;13.29;100.00;97831.03;5089138;28;20031;-57
2023/10/27 03:32:38;;;;;;;0.50;0.50;;;;;;;13.29;100.00;97839.03;5104415;28;20031;-58
2023/10/27 03:35:03;;;;;;;0.50;0.50;;;;;;;13.28;100.00;97839.16;5088956;28;20032;-57
2023/10/27 03:37:29;;;;;;;0.50;0.50;;;;;;;13.28;100.00;97839.16;5096036;28;20451;-58
2023/10/27 03:39:54;;;;;;;0.60;0.60;;;;;;;13.30;100.00;97837.22;5109307;28;20391;-57
2023/10/27 03:42:20;;;;;;;0.50;0.50;;;;;;;13.26;100.00;97838.44;5106358;28;20032;-58
2023/10/27 03:44:45;;;;;;;0.60;0.60;;;;;;;13.31;100.00;97844.25;5112730;28;20031;-58
2023/10/27 03:47:10;;;;;;;0.50;0.50;;;;;;;13.31;100.00;97833.59;5112004;28;20154;-58
2023/10/27 03:49:36;;;;;;;0.50;0.50;;;;;;;13.33;100.00;97837.00;5097377;28;20024;-57
2023/10/27 03:52:01;;;;;;;0.60;0.60;;;;;;;13.33;100.00;97842.34;5101366;28;20092;-57
2023/10/27 03:54:28;;;;;;;0.50;0.50;;;;;;;13.31;100.00;97836.25;5106492;28;20031;-58
2023/10/27 03:56:53;;;;;;;0.50;0.50;;;;;;;13.28;100.00;97833.84;5109252;28;20115;-57
2023/10/27 03:59:19;;;;;;;0.50;0.50;;;;;;;13.30;100.00;97838.06;5091485;28;20072;-59
2023/10/27 04:01:45;;;;;;;0.50;0.50;;;;;;;13.27;100.00;97826.78;5091547;28;20028;-58
2023/10/27 04:04:11;;;;;;;0.50;0.50;;;;;;;13.26;100.00;97822.41;5098374;28;20034;-58
2023/10/27 04:06:37;;;;;;;0.50;0.50;;;;;;;13.28;100.00;97815.13;5110897;28;20729;-60
2023/10/27 04:09:02;;;;;;;0.50;0.50;;;;;;;13.31;100.00;97823.72;5091687;28;20032;-57
2023/10/27 04:11:28;;;;;;;0.50;0.50;;;;;;;13.29;100.00;97827.50;5091842;28;20039;-57
2023/10/27 04:13:53;;;;;;;0.60;0.60;;;;;;;13.29;100.00;97828.38;5094285;28;20048;-57
2023/10/27 04:16:19;;;;;;;0.50;0.50;;;;;;;13.17;100.00;97827.50;5092171;28;20383;-58
2023/10/27 04:18:44;;;;;;;0.50;0.50;;;;;;;13.16;100.00;97838.31;5095312;28;20674;-57
2023/10/27 04:21:10;;;;;;;0.50;0.50;;;;;;;13.20;100.00;97827.25;5096899;28;20114;-57
2023/10/27 04:23:36;;;;;;;0.50;0.50;;;;;;;13.21;100.00;97831.63;5099992;28;20046;-56
2023/10/27 04:26:01;;;;;;;0.50;0.50;;;;;;;13.18;100.00;97839.88;5093809;28;20028;-57
2023/10/27 04:28:27;;;;;;;0.50;0.50;;;;;;;13.14;100.00;97838.41;5111863;28;20021;-57
2023/10/27 04:30:53;;;;;;;0.50;0.50;;;;;;;13.13;100.00;97844.72;5109037;28;20103;-58
2023/10/27 04:33:20;;;;;;;0.50;0.50;;;;;;;13.10;100.00;97836.94;5091995;28;20050;-57
2023/10/27 04:35:45;;;;;;;0.50;0.50;;;;;;;12.99;100.00;97839.56;5102182;28;20504;-57
2023/10/27 04:38:11;;;;;;;0.50;0.50;;;;;;;13.02;100.00;97855.38;5100501;28;20019;-57
2023/10/27 04:40:36;;;;;;;0.60;0.60;;;;;;;13.06;100.00;97861.34;5112004;28;20394;-57
2023/10/27 04:43:03;;;;;;;0.50;0.50;;;;;;;13.06;100.00;97867.50;5106312;28;20161;-57
2023/10/27 04:45:28;;;;;;;0.50;0.50;;;;;;;13.09;100.00;97867.28;5091215;28;20059;-57
2023/10/27 04:47:54;;;;;;;0.60;0.60;;;;;;;13.11;100.00;97873.34;5093372;28;20121;-58
2023/10/27 04:50:20;;;;;;;0.50;0.50;;;;;;;13.12;100.00;97876.88;5107847;28;20022;-57
2023/10/27 04:52:45;;;;;;;0.50;0.50;;;;;;;13.11;100.00;97876.00;5109587;28;20490;-57
2023/10/27 04:55:11;;;;;;;0.50;0.50;;;;;;;13.06;100.00;97883.50;5104483;28;20080;-57
2023/10/27 04:57:36;;;;;;;0.50;0.50;;;;;;;13.07;100.00;97879.91;5109982;28;20383;-57
2023/10/27 05:00:05;;;;;;;0.57;0.57;;;;;;;13.05;100.00;97884.50;5104304;28;20644;-57
2023/10/27 05:02:31;;;;;;;0.60;0.60;;;;;;;13.00;100.00;97883.97;5100112;28;20024;-57
2023/10/27 05:04:56;;;;;;;0.50;0.50;;;;;;;13.02;100.00;97878.53;5111074;28;20035;-57
2023/10/27 05:07:22;;;;;;;0.50;0.50;;;;;;;12.98;100.00;97885.88;5109781;28;20015;-57
2023/10/27 05:09:47;;;;;;;0.60;0.60;;;;;;;12.91;100.00;97881.13;5096581;28;20609;-57
2023/10/27 05:12:13;;;;;;;0.50;0.50;;;;;;;12.92;100.00;97881.03;5090163;28;20031;-57
2023/10/27 05:14:39;;;;;;;0.57;0.57;;;;;;;12.96;100.00;97890.47;5099146;28;20051;-57
2023/10/27 05:17:05;;;;;;;0.50;0.50;;;;;;;12.99;100.00;97903.63;5110554;28;20436;-57
2023/10/27 05:19:30;;;;;;;0.50;0.50;;;;;;;12.96;100.00;97898.47;5095562;28;20032;-57
2023/10/27 05:21:56;;;;;;;0.60;0.60;;;;;;;12.96;100.00;97911.81;5092016;28;20032;-57
2023/10/27 05:24:22;;;;;;;0.57;0.57;;;;;;;12.94;100.00;97905.78;5103104;28;20103;-57
2023/10/27 05:26:47;;;;;;;0.50;0.50;;;;;;;12.93;100.00;97920.06;5108081;28;20118;-57
2023/10/27 05:29:13;;;;;;;0.50;0.50;;;;;;;12.90;100.00;97912.31;5096685;28;20035;-57
2023/10/27 05:31:39;;;;;;;0.60;0.60;;;;;;;12.98;100.00;97917.06;5100233;28;20433;-57
2023/10/27 05:34:05;;;;;;;0.50;0.50;;;;;;;12.94;100.00;97916.44;5093249;28;20036;-57
2023/10/27 05:36:31;;;;;;;0.50;0.50;;;;;;;12.88;100.00;97922.22;5090111;28;20183;-57
2023/10/27 05:38:56;;;;;;;0.60;0.60;;;;;;;12.94;100.00;97931.59;5105215;28;20106;-57
2023/10/27 05:41:22;;;;;;;0.60;0.60;;;;;;;12.93;100.00;97925.41;5110385;28;20509;-57
2023/10/27 05:43:50;;;;;;;0.60;0.60;;;;;;;12.97;100.00;97926.88;5097107;28;20038;-57
2023/10/27 05:46:15;;;;;;;0.60;0.60;;;;;;;12.89;100.00;97918.63;5095858;27;20764;-57
2023/10/27 05:48:41;;;;;;;0.60;0.60;;;;;;;12.85;100.00;97921.63;5092412;28;20036;-57
2023/10/27 05:51:06;;;;;;;0.60;0.60;;;;;;;12.87;100.00;97909.00;5096072;28;20043;-58
2023/10/27 05:53:31;;;;;;;0.60;0.60;;;;;;;12.84;100.00;97919.91;5105814;28;20032;-57
2023/10/27 05:55:57;;;;;;;0.50;0.50;;;;;;;12.90;100.00;97927.44;5107750;28;20573;-57
2023/10/27 05:58:22;;;;;;;0.50;0.50;;;;;;;12.90;100.00;97930.97;5101852;28;20032;-57
2023/10/27 06:00:48;;;;;;;0.60;0.60;;;;;;;12.90;100.00;97940.78;5106345;28;20026;-58
2023/10/27 06:03:13;;;;;;;0.50;0.50;;;;;;;12.87;100.00;97935.69;5110145;28;20024;-57
2023/10/27 06:05:40;;;;;;;0.50;0.50;;;;;;;12.90;100.00;97946.13;5109852;28;20130;-57
2023/10/27 06:08:05;;;;;;;0.60;0.60;;;;;;;12.89;100.00;97949.78;5097035;28;20541;-57
2023/10/27 06:10:30;;;;;;;0.57;0.57;;;;;;;12.86;100.00;97961.53;5109461;28;20039;-57
2023/10/27 06:12:56;;;;;;;0.60;0.60;;;;;;;12.88;100.00;97964.09;5109393;28;20028;-58
2023/10/27 06:15:21;;;;;;;0.60;0.60;;;;;;;12.87;100.00;97973.03;5102220;28;20035;-57
2023/10/27 06:17:49;;;;;;;0.50;0.50;;;;;;;12.89;100.00;97977.31;5090511;28;20024;-57
2023/10/27 06:20:14;;;;;;;0.60;0.60;;;;;;;12.93;100.00;97976.09;5107537;28;20024;-57
2023/10/27 06:22:40;;;;;;;0.60;0.60;;;;;;;12.93;100.00;97977.94;5106985;28;22024;-57
2023/10/27 06:25:05;;;;;;;0.60;0.60;;;;;;;12.97;100.00;97982.94;5102870;28;20614;-57
2023/10/27 06:27:31;;;;;;;0.60;0.60;;;;;;;12.99;100.00;97988.16;5109600;28;20023;-57
2023/10/27 06:29:56;;;;;;;0.50;0.50;;;;;;;13.02;100.00;97983.47;5096646;28;20035;-57
2023/10/27 06:32:23;;;;;;;0.50;0.50;;;;;;;13.02;100.00;97993.28;5104197;28;20120;-58
2023/10/27 06:34:48;;;;;;;0.50;0.50;;;;;;;13.00;100.00;97990.69;5104462;28;20174;-58
2023/10/27 06:37:14;;;;;;;0.50;0.50;;;;;;;13.01;100.00;97996.94;5104401;28;20820;-58
2023/10/27 06:39:39;;;;;;;0.50;0.50;;;;;;;13.00;100.00;98001.38;5089365;28;20115;-57
2023/10/27 06:42:06;;;;;;;0.50;0.50;;;;;;;13.02;100.00;98015.50;5090669;28;20031;-58
2023/10/27 06:44:31;;;;;;;0.50;0.50;;;;;;;13.00;100.00;98012.06;5088462;28;20032;-58
2023/10/27 06:46:57;;;;;;;0.50;0.50;;;;;;;13.01;100.00;98013.78;5088141;28;20081;-57
2023/10/27 06:49:22;;;;;;;0.60;0.60;;;;;;;12.99;100.00;98010.38;5096266;28;20020;-58
2023/10/27 06:51:48;;;;;;;0.60;0.60;;;;;;;13.00;100.00;98024.53;5096565;28;20031;-57
2023/10/27 06:54:14;;;;;;;0.50;0.50;;;;;;;13.05;100.00;98030.41;5095387;28;20130;-57
2023/10/27 06:56:39;;;;;;;0.50;0.50;;;;;;;13.11;100.00;98030.81;5096393;28;20027;-57
2023/10/27 06:59:04;;;;;;;0.50;0.50;;;;;;;13.07;100.00;98026.69;5096429;28;20035;-57
2023/10/27 07:01:30;;;;;;;0.52;0.52;;;;;;;13.08;100.00;98030.19;5097738;28;20020;-57
2023/10/27 07:03:55;;;;;;;0.55;0.55;;;;;;;13.09;100.00;98032.78;5096796;28;20363;-58
2023/10/27 07:06:21;;;;;;;0.60;0.60;;;;;;;13.11;100.00;98032.66;5096701;28;20062;-57
2023/10/27 07:08:46;;;;;;;0.52;0.52;;;;;;;13.16;100.00;98038.50;5096826;28;20031;-57
2023/10/27 07:11:13;;;;;;;0.60;0.60;;;;;;;13.21;100.00;98044.34;5096618;28;20051;-57
2023/10/27 07:13:38;;;;;;;0.50;0.50;;;;;;;13.30;100.00;98050.81;5097489;28;20043;-57
2023/10/27 07:16:04;;;;;;;0.60;0.60;;;;;;;13.30;100.00;98049.00;5107498;28;20062;-57
2023/10/27 07:18:29;;;;;;;0.65;0.65;;;;;;;13.35;100.00;98054.84;5093837;28;20035;-57
2023/10/27 07:20:56;;;;;;;0.50;0.50;;;;;;;13.35;100.00;98059.31;5108966;28;20034;-57
2023/10/27 07:23:22;;;;;;;0.50;0.50;;;;;;;13.35;100.00;98064.66;5113339;28;20028;-57
2023/10/27 07:25:47;;;;;;;0.60;0.60;;;;;;;13.33;100.00;98071.97;5111138;28;20088;-57
2023/10/27 07:28:13;;;;;;;0.57;0.57;;;;;;;13.33;100.00;98074.63;5094520;28;20075;-57
2023/10/27 07:30:38;;;;;;;0.60;0.60;;;;;;;13.36;100.00;98072.56;5096612;28;20019;-57
2023/10/27 07:33:04;;;;;;;0.50;0.50;;;;;;;13.31;100.00;98079.22;5107655;28;20049;-58
2023/10/27 07:35:33;;;;;;;0.50;0.50;;;;;;;13.26;100.00;98086.72;5108237;28;20027;-58
2023/10/27 07:37:59;;;;;;;0.50;0.50;;;;;;;13.25;100.00;98088.53;5098890;28;20073;-57
2023/10/27 07:40:25;;;;;;;0.57;0.57;;;;;;;13.29;100.00;98091.84;5093883;28;20032;-57
2023/10/27 07:42:50;;;;;;;0.60;0.60;;;;;;;13.35;100.00;98100.25;5090957;28;20153;-57
2023/10/27 07:45:16;;;;;;;0.60;0.60;;;;;;;13.39;100.00;98106.22;5090867;28;20587;-58
2023/10/27 07:47:41;;;;;;;0.50;0.50;;;;;;;13.38;100.00;98104.53;5092813;28;20024;-57
2023/10/27 07:50:07;;;;;;;0.60;0.60;;;;;;;13.41;100.00;98106.97;5102377;28;20031;-57
2023/10/27 07:52:33;;;;;;;0.55;0.55;;;;;;;13.39;100.00;98106.22;5113196;28;20038;-57
2023/10/27 07:54:59;;;;;;;0.60;0.60;;;;;;;13.38;100.00;98110.69;5111969;28;20391;-57
2023/10/27 07:57:26;;;;;;;0.60;0.60;;;;;;;13.37;100.00;98105.47;5097089;28;20036;-58
2023/10/27 07:59:51;;;;;;;0.50;0.50;;;;;;;13.39;100.00;98115.09;5092850;28;20657;-57
2023/10/27 08:02:17;;;;;;;0.50;0.50;;;;;;;13.38;100.00;98123.22;5104058;28;20028;-58
2023/10/27 08:04:42;;;;;;;0.60;0.60;;;;;;;13.40;100.00;98129.25;5113111;28;20427;-57
2023/10/27 08:07:08;;;;;;;0.50;0.50;;;;;;;13.37;100.00;98122.34;5106495;28;20016;-57
2023/10/27 08:09:33;;;;;;;0.57;0.57;;;;;;;13.46;100.00;98120.81;5092627;28;20019;-57
2023/10/27 08:11:58;;;;;;;0.50;0.50;;;;;;;13.45;100.00;98132.44;5092433;28;20051;-57
2023/10/27 08:14:24;;;;;;;0.50;0.50;;;;;;;13.46;100.00;98123.50;5092375;28;20048;-57
2023/10/27 08:16:50;;;;;;;0.50;0.50;;;;;;;13.51;100.00;98127.50;5107960;28;20063;-57
2023/10/27 08:19:15;;;;;;;0.50;0.50;;;;;;;13.52;100.00;98128.38;5112465;28;20034;-57
2023/10/27 08:21:41;;;;;;;0.50;0.50;;;;;;;13.57;100.00;98128.88;5109708;28;20027;-57
2023/10/27 08:24:07;;;;;;;0.50;0.50;;;;;;;13.51;100.00;98130.19;5108323;28;20032;-57
2023/10/27 08:26:32;;;;;;;0.50;0.50;;;;;;;13.67;100.00;98132.56;5112370;28;20019;-57
2023/10/27 08:28:58;;;;;;;0.50;0.50;;;;;;;13.81;100.00;98127.03;5110722;28;20027;-57
2023/10/27 08:31:23;;;;;;;0.60;0.60;;;;;;;13.90;100.00;98132.56;5099080;28;20119;-57
2023/10/27 08:33:49;;;;;;;0.50;0.50;;;;;;;14.02;100.00;98125.41;5106836;28;20027;-57
2023/10/27 08:36:15;;;;;;;0.50;0.50;;;;;;;13.98;100.00;98129.28;5111513;28;20470;-57
2023/10/27 08:38:41;;;;;;;0.60;0.60;;;;;;;14.01;100.00;98129.03;5111061;28;20027;-58
2023/10/27 08:41:07;;;;;;;0.50;0.50;;;;;;;14.03;100.00;98143.16;5100513;28;20135;-57
2023/10/27 08:43:34;;;;;;;0.50;0.50;;;;;;;14.05;100.00;98136.72;5111187;28;20034;-57
2023/10/27 08:46:04;;;;;;;0.50;0.50;;;;;;;14.04;100.00;98134.16;5111339;28;20036;-57
2023/10/27 08:48:30;;;;;;;0.50;0.50;;;;;;;14.02;100.00;98146.81;5094429;28;20028;-57
2023/10/27 08:50:59;;;;;;;0.50;0.50;;;;;;;13.96;100.00;98136.56;5091738;28;20031;-57
2023/10/27 08:53:25;;;;;;;0.50;0.50;;;;;;;13.97;100.00;98146.31;5107415;28;20110;-57
2023/10/27 08:55:50;;;;;;;0.50;0.50;;;;;;;13.96;100.00;98148.13;5107866;28;20156;-57
2023/10/27 08:58:16;;;;;;;0.60;0.60;;;;;;;13.94;100.00;98151.84;5111565;28;20026;-57
2023/10/27 09:00:42;;;;;;;0.60;0.60;;;;;;;14.03;100.00;98153.84;5111765;28;20475;-57
2023/10/27 09:03:17;;;;;;;0.50;0.50;;;;;;;14.09;100.00;98159.56;5107645;28;20051;-58
2023/10/27 09:05:44;;;;;;;0.60;0.60;;;;;;;14.23;100.00;98167.38;5091345;28;20107;-57
2023/10/27 09:08:10;;;;;;;0.50;0.50;;;;;;;14.31;100.00;98164.19;5093319;28;20020;-58
2023/10/27 09:10:36;;;;;;;0.60;0.60;;;;;;;14.36;100.00;98162.00;5091193;28;20077;-58
2023/10/27 09:13:03;;;;;;;0.50;0.50;;;;;;;14.36;100.00;98160.16;5090839;28;20056;-58
2023/10/27 09:15:41;;;;;;;0.50;0.50;;;;;;;14.61;100.00;98164.47;5091953;28;20030;-57
2023/10/27 09:18:08;;;;;;;0.50;0.50;;;;;;;15.82;100.00;98163.50;5111150;28;20468;-57
2023/10/27 09:20:49;;;;;;;0.50;0.50;;;;;;;17.49;100.00;98167.66;5111013;28;20102;-57
2023/10/27 09:23:14;;;;;;;0.50;0.50;;;;;;;18.43;99.23;98175.97;5110373;28;20020;-57
2023/10/27 09:25:40;;;;;;;0.50;0.50;;;;;;;18.85;91.63;98169.22;5100315;28;20046;-58
2023/10/27 09:28:06;;;;;;;0.40;0.40;;;;;;;19.68;87.63;98174.56;5090019;28;20031;-57
2023/10/27 09:30:39;;;;;;;0.40;0.40;;;;;;;20.44;82.04;98183.97;5090964;28;20028;-57
2023/10/27 09:33:25;;;;;;;0.35;0.35;;;;;;;21.07;74.79;98190.84;5092220;28;20035;-57
2023/10/27 09:35:52;;;;;;;0.30;0.30;;;;;;;21.31;72.25;98193.72;5095057;28;20119;-57
2023/10/27 09:38:18;;;;;;;0.25;0.25;;;;;;;21.16;72.18;98197.16;5089360;28;20035;-57
2023/10/27 09:40:45;;;;;;;0.22;0.22;;;;;;;21.51;70.77;98213.25;5094311;28;20066;-57
2023/10/27 09:43:19;;;;;;;0.30;0.30;;;;;;;21.13;70.78;98203.75;5090549;28;20036;-57
2023/10/27 09:46:06;;;;;;;0.20;0.20;;;;;;;21.10;70.39;98211.34;5093175;28;20026;-57
2023/10/27 09:48:35;;;;;;;0.20;0.20;;;;;;;21.33;69.03;98213.34;5090322;28;20032;-57
2023/10/27 09:51:22;;;;;;;0.22;0.22;;;;;;;21.29;67.79;98205.69;5101783;28;20023;-58
2023/10/27 09:53:49;;;;;;;0.20;0.20;;;;;;;20.83;67.57;98215.84;5107840;28;20067;-56
2023/10/27 09:56:17;;;;;;;0.20;0.20;;;;;;;20.57;69.54;98222.22;5100427;28;20035;-56
2023/10/27 09:58:43;;;;;;;0.30;0.30;;;;;;;20.57;71.22;98214.13;5104306;28;20023;-56
2023/10/27 10:01:09;;;;;;;0.30;0.30;;;;;;;20.56;69.03;98215.97;5105774;28;20101;-56
2023/10/27 10:03:41;;;;;;;0.20;0.20;;;;;;;20.80;66.83;98218.03;5095012;28;20055;-56
2023/10/27 10:06:20;;;;;;;0.20;0.20;;;;;;;21.08;66.78;98214.22;5089575;28;20482;-56
2023/10/27 10:09:06;;;;;;;0.20;0.20;;;;;;;20.94;64.69;98223.69;5090186;28;20016;-56
2023/10/27 10:11:37;;;;;;;0.30;0.30;;;;;;;20.63;67.72;98219.75;5092442;28;20093;-56
2023/10/27 10:14:04;;;;;;;0.30;0.30;;;;;;;20.49;68.18;98216.75;5097980;28;20529;-56
2023/10/27 10:16:40;;;;;;;0.25;0.25;;;;;;;20.51;69.53;98226.38;5089792;28;20128;-56
2023/10/27 10:19:08;;;;;;;0.30;0.30;;;;;;;19.84;68.85;98212.50;5090533;28;20129;-56
2023/10/27 10:21:39;;;;;;;0.30;0.30;;;;;;;19.17;72.67;98209.25;5091048;28;20054;-57
2023/10/27 10:24:07;;;;;;;0.20;0.20;;;;;;;18.77;74.17;98211.34;5093292;28;20111;-57
2023/10/27 10:27:05;;;;;;;0.30;0.30;;;;;;;18.69;76.49;98206.69;5088743;28;20468;-56
2023/10/27 10:29:32;;;;;;;0.30;0.30;;;;;;;18.27;76.84;98213.31;5091311;28;20838;-56
2023/10/27 10:32:33;;;;;;;0.30;0.30;;;;;;;18.09;78.56;98207.81;5103408;28;20028;-56
2023/10/27 10:35:28;;;;;;;0.30;0.30;;;;;;;18.00;79.13;98210.50;5088798;28;20065;-57
2023/10/27 10:37:53;;;;;;;0.30;0.30;;;;;;;18.10;79.35;98203.28;5070624;28;20383;-56
2023/10/27 10:40:23;;;;;;;0.28;0.28;;;;;;;18.93;78.47;98212.44;5097133;28;20033;-56
2023/10/27 10:43:44;;;;;;;0.30;0.30;;;;;;;19.72;72.79;98213.69;5089010;28;20028;-57
2023/10/27 10:46:11;;;;;;;0.20;0.20;;;;;;;19.42;70.44;98209.44;5088772;28;20153;-56
2023/10/27 10:48:45;;;;;;;0.20;0.20;;;;;;;18.65;72.32;98212.50;5093609;28;20030;-56
2023/10/27 10:51:26;;;;;;;0.30;0.30;;;;;;;18.00;76.34;98222.13;5088629;28;20032;-56
2023/10/27 10:53:54;;;;;;;0.20;0.20;;;;;;;17.50;80.14;98233.88;5098482;28;20068;-57
2023/10/27 10:56:20;;;;;;;0.30;0.30;;;;;;;17.32;83.05;98224.72;5099442;28;20116;-57
2023/10/27 10:58:45;;;;;;;0.20;0.20;;;;;;;17.14;83.08;98231.69;5089743;28;20118;-57
2023/10/27 11:01:21;;;;;;;0.20;0.20;;;;;;;17.06;85.16;98224.31;5105462;28;20499;-56
2023/10/27 11:03:49;;;;;;;0.20;0.20;;;;;;;17.92;85.83;98213.88;5102145;28;20024;-56
2023/10/27 11:06:17;;;;;;;0.30;0.30;;;;;;;19.22;80.94;98217.75;5094553;28;20023;-56
2023/10/27 11:08:44;;;;;;;0.22;0.22;;;;;;;19.85;73.85;98211.50;5099258;28;20028;-56
2023/10/27 11:11:16;;;;;;;0.20;0.20;;;;;;;20.45;70.62;98210.81;5091775;28;20032;-56
2023/10/27 11:13:46;;;;;;;0.20;0.20;;;;;;;20.31;67.53;98222.13;5088458;28;20040;-56
2023/10/27 11:16:15;;;;;;;0.20;0.20;;;;;;;19.69;69.25;98221.28;5089211;28;20527;-56
2023/10/27 11:18:42;;;;;;;0.20;0.20;;;;;;;19.11;70.92;98220.63;5088362;28;20020;-56
2023/10/27 11:21:15;;;;;;;0.20;0.20;;;;;;;18.78;74.31;98221.97;5090573;28;20028;-56
2023/10/27 11:23:40;;;;;;;;;;;;;;;18.99;75.01;98221.78;5099628;28;20032;-56
2023/10/27 11:26:06;;;;;;;0.30;0.30;;;;;;;19.81;73.45;98225.44;5088551;28;19912;-56